sensor_id;sensor_type;location;lat;lon;timestamp;P1;durP1;ratioP1;P2;durP2;ratioP2
24102;SDS011;12278;53.058;9.028;2022-10-22T00:03:00;16.55;;;11.90;;
24102;SDS011;12278;53.058;9.028;2022-10-22T00:07:00;13.77;;;12.18;;
24102;SDS011;12278;53.058;9.028;2022-10-22T00:11:34;13.25;;;11.52;;
24102;SDS011;12278;53.058;9.028;2022-10-22T00:15:28;15.93;;;11.48;;
24102;SDS011;12278;53.058;9.028;2022-10-22T00:19:29;17.08;;;11.93;;
24102;SDS011;12278;53.058;9.028;2022-10-22T00:23:29;14.77;;;11.43;;
24102;SDS011;12278;53.058;9.028;2022-10-22T00:27:30;13.80;;;11.60;;
24102;SDS011;12278;53.058;9.028;2022-10-22T00:31:31;14.57;;;10.93;;
24102;SDS011;12278;53.058;9.028;2022-10-22T00:35:31;16.38;;;10.88;;
24102;SDS011;12278;53.058;9.028;2022-10-22T00:39:32;13.45;;;11.63;;
24102;SDS011;12278;53.058;9.028;2022-10-22T00:43:33;13.40;;;11.27;;
24102;SDS011;12278;53.058;9.028;2022-10-22T00:52:06;13.45;;;10.88;;
24102;SDS011;12278;53.058;9.028;2022-10-22T00:56:07;15.68;;;11.20;;
24102;SDS011;12278;53.058;9.028;2022-10-22T01:00:09;14.80;;;11.27;;
24102;SDS011;12278;53.058;9.028;2022-10-22T01:04:10;14.18;;;11.07;;
24102;SDS011;12278;53.058;9.028;2022-10-22T01:08:14;12.27;;;10.00;;
24102;SDS011;12278;53.058;9.028;2022-10-22T01:16:42;12.95;;;9.77;;
24102;SDS011;12278;53.058;9.028;2022-10-22T01:30:03;11.13;;;9.52;;
24102;SDS011;12278;53.058;9.028;2022-10-22T01:34:06;10.60;;;9.40;;
24102;SDS011;12278;53.058;9.028;2022-10-22T01:38:10;11.73;;;9.77;;
24102;SDS011;12278;53.058;9.028;2022-10-22T01:42:14;11.02;;;9.27;;
24102;SDS011;12278;53.058;9.028;2022-10-22T01:46:20;11.07;;;9.23;;
24102;SDS011;12278;53.058;9.028;2022-10-22T02:03:15;10.93;;;9.82;;
24102;SDS011;12278;53.058;9.028;2022-10-22T02:07:25;12.43;;;9.27;;
24102;SDS011;12278;53.058;9.028;2022-10-22T02:11:30;10.30;;;9.23;;
24102;SDS011;12278;53.058;9.028;2022-10-22T02:15:30;12.88;;;10.00;;
24102;SDS011;12278;53.058;9.028;2022-10-22T02:23:53;10.48;;;9.43;;
24102;SDS011;12278;53.058;9.028;2022-10-22T02:27:59;13.07;;;8.98;;
24102;SDS011;12278;53.058;9.028;2022-10-22T02:32:08;12.30;;;9.27;;
24102;SDS011;12278;53.058;9.028;2022-10-22T02:36:13;11.65;;;9.18;;
24102;SDS011;12278;53.058;9.028;2022-10-22T02:40:15;14.75;;;10.40;;
24102;SDS011;12278;53.058;9.028;2022-10-22T02:44:19;11.50;;;10.40;;
24102;SDS011;12278;53.058;9.028;2022-10-22T02:48:20;13.30;;;10.70;;
24102;SDS011;12278;53.058;9.028;2022-10-22T02:52:21;12.30;;;10.32;;
24102;SDS011;12278;53.058;9.028;2022-10-22T02:56:22;11.98;;;10.27;;
24102;SDS011;12278;53.058;9.028;2022-10-22T03:00:22;13.57;;;11.68;;
24102;SDS011;12278;53.058;9.028;2022-10-22T03:04:23;12.07;;;10.73;;
24102;SDS011;12278;53.058;9.028;2022-10-22T03:08:24;12.00;;;10.30;;
24102;SDS011;12278;53.058;9.028;2022-10-22T03:12:24;12.70;;;10.60;;
24102;SDS011;12278;53.058;9.028;2022-10-22T03:16:25;12.23;;;10.88;;
24102;SDS011;12278;53.058;9.028;2022-10-22T03:20:26;13.32;;;10.70;;
24102;SDS011;12278;53.058;9.028;2022-10-22T03:24:40;12.75;;;10.25;;
24102;SDS011;12278;53.058;9.028;2022-10-22T03:28:43;12.38;;;10.73;;
24102;SDS011;12278;53.058;9.028;2022-10-22T03:32:45;13.02;;;11.25;;
24102;SDS011;12278;53.058;9.028;2022-10-22T03:36:46;12.43;;;11.13;;
24102;SDS011;12278;53.058;9.028;2022-10-22T03:40:48;12.07;;;10.63;;
24102;SDS011;12278;53.058;9.028;2022-10-22T03:44:49;14.52;;;11.02;;
24102;SDS011;12278;53.058;9.028;2022-10-22T03:48:50;11.10;;;9.75;;
24102;SDS011;12278;53.058;9.028;2022-10-22T03:52:50;13.93;;;10.15;;
24102;SDS011;12278;53.058;9.028;2022-10-22T03:56:52;11.45;;;10.10;;
24102;SDS011;12278;53.058;9.028;2022-10-22T04:00:53;10.80;;;9.57;;
24102;SDS011;12278;53.058;9.028;2022-10-22T04:04:53;13.23;;;10.55;;
24102;SDS011;12278;53.058;9.028;2022-10-22T04:08:54;12.77;;;10.82;;
24102;SDS011;12278;53.058;9.028;2022-10-22T04:12:55;16.70;;;12.07;;
24102;SDS011;12278;53.058;9.028;2022-10-22T04:16:55;13.25;;;11.25;;
24102;SDS011;12278;53.058;9.028;2022-10-22T04:20:56;16.25;;;10.38;;
24102;SDS011;12278;53.058;9.028;2022-10-22T04:24:59;12.50;;;9.90;;
24102;SDS011;12278;53.058;9.028;2022-10-22T04:29:00;13.23;;;10.93;;
24102;SDS011;12278;53.058;9.028;2022-10-22T04:33:01;14.07;;;10.23;;
24102;SDS011;12278;53.058;9.028;2022-10-22T04:37:02;15.45;;;10.77;;
24102;SDS011;12278;53.058;9.028;2022-10-22T04:41:23;12.95;;;10.30;;
24102;SDS011;12278;53.058;9.028;2022-10-22T04:45:34;14.55;;;11.15;;
24102;SDS011;12278;53.058;9.028;2022-10-22T04:49:35;13.55;;;10.40;;
24102;SDS011;12278;53.058;9.028;2022-10-22T04:53:36;13.18;;;10.88;;
24102;SDS011;12278;53.058;9.028;2022-10-22T04:57:36;13.88;;;9.93;;
24102;SDS011;12278;53.058;9.028;2022-10-22T05:01:38;12.02;;;10.45;;
24102;SDS011;12278;53.058;9.028;2022-10-22T05:05:40;27.45;;;17.88;;
24102;SDS011;12278;53.058;9.028;2022-10-22T05:09:40;37.00;;;17.90;;
24102;SDS011;12278;53.058;9.028;2022-10-22T05:13:41;19.95;;;13.23;;
24102;SDS011;12278;53.058;9.028;2022-10-22T05:17:42;23.60;;;14.05;;
24102;SDS011;12278;53.058;9.028;2022-10-22T05:21:42;29.83;;;17.63;;
24102;SDS011;12278;53.058;9.028;2022-10-22T05:25:43;17.15;;;13.07;;
24102;SDS011;12278;53.058;9.028;2022-10-22T05:29:43;16.00;;;12.25;;
24102;SDS011;12278;53.058;9.028;2022-10-22T05:33:44;30.45;;;18.83;;
24102;SDS011;12278;53.058;9.028;2022-10-22T05:37:45;46.58;;;22.48;;
24102;SDS011;12278;53.058;9.028;2022-10-22T05:41:46;45.38;;;20.13;;
24102;SDS011;12278;53.058;9.028;2022-10-22T05:45:46;50.90;;;21.20;;
24102;SDS011;12278;53.058;9.028;2022-10-22T05:49:47;52.85;;;23.92;;
24102;SDS011;12278;53.058;9.028;2022-10-22T05:53:50;52.40;;;22.30;;
24102;SDS011;12278;53.058;9.028;2022-10-22T05:57:52;43.72;;;20.52;;
24102;SDS011;12278;53.058;9.028;2022-10-22T06:01:52;31.25;;;15.60;;
24102;SDS011;12278;53.058;9.028;2022-10-22T06:05:53;28.08;;;14.60;;
24102;SDS011;12278;53.058;9.028;2022-10-22T06:09:54;16.27;;;11.23;;
24102;SDS011;12278;53.058;9.028;2022-10-22T06:13:54;13.93;;;9.52;;
24102;SDS011;12278;53.058;9.028;2022-10-22T06:17:55;13.07;;;9.45;;
24102;SDS011;12278;53.058;9.028;2022-10-22T06:21:56;13.55;;;8.52;;
24102;SDS011;12278;53.058;9.028;2022-10-22T06:25:57;11.13;;;8.85;;
24102;SDS011;12278;53.058;9.028;2022-10-22T06:29:58;13.15;;;9.93;;
24102;SDS011;12278;53.058;9.028;2022-10-22T06:33:59;11.52;;;9.20;;
24102;SDS011;12278;53.058;9.028;2022-10-22T06:38:00;14.02;;;8.38;;
24102;SDS011;12278;53.058;9.028;2022-10-22T06:42:00;12.35;;;9.02;;
24102;SDS011;12278;53.058;9.028;2022-10-22T06:46:02;9.82;;;8.20;;
24102;SDS011;12278;53.058;9.028;2022-10-22T06:50:05;12.43;;;8.45;;
24102;SDS011;12278;53.058;9.028;2022-10-22T06:54:06;11.75;;;8.90;;
24102;SDS011;12278;53.058;9.028;2022-10-22T06:58:06;12.23;;;9.13;;
24102;SDS011;12278;53.058;9.028;2022-10-22T07:02:08;10.77;;;8.48;;
24102;SDS011;12278;53.058;9.028;2022-10-22T07:06:10;12.57;;;9.05;;
24102;SDS011;12278;53.058;9.028;2022-10-22T07:10:12;12.95;;;9.38;;
24102;SDS011;12278;53.058;9.028;2022-10-22T07:14:13;14.57;;;9.50;;
24102;SDS011;12278;53.058;9.028;2022-10-22T07:18:14;11.68;;;9.73;;
24102;SDS011;12278;53.058;9.028;2022-10-22T07:22:14;14.20;;;10.05;;
24102;SDS011;12278;53.058;9.028;2022-10-22T07:26:15;13.40;;;9.55;;
24102;SDS011;12278;53.058;9.028;2022-10-22T07:30:16;14.65;;;9.77;;
24102;SDS011;12278;53.058;9.028;2022-10-22T07:34:17;13.35;;;9.63;;
24102;SDS011;12278;53.058;9.028;2022-10-22T07:38:18;12.95;;;10.15;;
24102;SDS011;12278;53.058;9.028;2022-10-22T07:42:18;12.00;;;9.00;;
24102;SDS011;12278;53.058;9.028;2022-10-22T07:46:19;13.65;;;9.13;;
24102;SDS011;12278;53.058;9.028;2022-10-22T07:50:20;11.77;;;8.88;;
24102;SDS011;12278;53.058;9.028;2022-10-22T07:54:20;11.75;;;7.95;;
24102;SDS011;12278;53.058;9.028;2022-10-22T07:58:22;11.85;;;7.07;;
24102;SDS011;12278;53.058;9.028;2022-10-22T08:02:23;7.75;;;5.85;;
24102;SDS011;12278;53.058;9.028;2022-10-22T08:06:24;6.68;;;5.90;;
24102;SDS011;12278;53.058;9.028;2022-10-22T08:10:25;5.75;;;5.15;;
24102;SDS011;12278;53.058;9.028;2022-10-22T08:14:25;7.32;;;5.80;;
24102;SDS011;12278;53.058;9.028;2022-10-22T08:18:26;9.98;;;6.22;;
24102;SDS011;12278;53.058;9.028;2022-10-22T08:22:27;7.60;;;6.18;;
24102;SDS011;12278;53.058;9.028;2022-10-22T08:26:28;7.97;;;6.90;;
24102;SDS011;12278;53.058;9.028;2022-10-22T08:30:29;9.27;;;6.05;;
24102;SDS011;12278;53.058;9.028;2022-10-22T08:34:29;8.05;;;5.88;;
24102;SDS011;12278;53.058;9.028;2022-10-22T08:38:30;6.72;;;5.10;;
24102;SDS011;12278;53.058;9.028;2022-10-22T08:51:10;5.10;;;4.13;;
24102;SDS011;12278;53.058;9.028;2022-10-22T08:55:15;6.60;;;5.00;;
24102;SDS011;12278;53.058;9.028;2022-10-22T08:59:18;7.88;;;4.45;;
24102;SDS011;12278;53.058;9.028;2022-10-22T09:03:50;8.07;;;4.53;;
24102;SDS011;12278;53.058;9.028;2022-10-22T09:08:00;8.35;;;5.03;;
24102;SDS011;12278;53.058;9.028;2022-10-22T09:12:02;4.78;;;4.25;;
24102;SDS011;12278;53.058;9.028;2022-10-22T09:20:36;5.18;;;3.38;;
24102;SDS011;12278;53.058;9.028;2022-10-22T09:24:48;4.47;;;3.65;;
24102;SDS011;12278;53.058;9.028;2022-10-22T09:28:54;6.40;;;4.07;;
24102;SDS011;12278;53.058;9.028;2022-10-22T09:37:07;3.47;;;3.00;;
24102;SDS011;12278;53.058;9.028;2022-10-22T09:41:11;5.65;;;3.67;;
24102;SDS011;12278;53.058;9.028;2022-10-22T09:45:18;5.35;;;4.03;;
24102;SDS011;12278;53.058;9.028;2022-10-22T09:49:22;5.78;;;3.95;;
24102;SDS011;12278;53.058;9.028;2022-10-22T09:53:29;4.32;;;3.20;;
24102;SDS011;12278;53.058;9.028;2022-10-22T09:57:34;4.53;;;3.28;;
24102;SDS011;12278;53.058;9.028;2022-10-22T10:01:35;8.43;;;3.33;;
24102;SDS011;12278;53.058;9.028;2022-10-22T10:05:39;6.55;;;3.85;;
24102;SDS011;12278;53.058;9.028;2022-10-22T10:09:40;9.23;;;3.90;;
24102;SDS011;12278;53.058;9.028;2022-10-22T10:13:45;7.38;;;4.10;;
24102;SDS011;12278;53.058;9.028;2022-10-22T10:17:56;7.97;;;3.55;;
24102;SDS011;12278;53.058;9.028;2022-10-22T10:22:13;5.10;;;3.22;;
24102;SDS011;12278;53.058;9.028;2022-10-22T10:26:33;3.83;;;3.42;;
24102;SDS011;12278;53.058;9.028;2022-10-22T10:30:47;7.85;;;3.50;;
24102;SDS011;12278;53.058;9.028;2022-10-22T10:35:14;7.20;;;3.20;;
24102;SDS011;12278;53.058;9.028;2022-10-22T10:39:20;6.18;;;3.92;;
24102;SDS011;12278;53.058;9.028;2022-10-22T10:43:31;9.95;;;3.63;;
24102;SDS011;12278;53.058;9.028;2022-10-22T10:56:00;5.80;;;3.28;;
24102;SDS011;12278;53.058;9.028;2022-10-22T11:00:20;6.30;;;3.30;;
24102;SDS011;12278;53.058;9.028;2022-10-22T11:04:40;8.20;;;3.45;;
24102;SDS011;12278;53.058;9.028;2022-10-22T11:09:04;7.03;;;3.47;;
24102;SDS011;12278;53.058;9.028;2022-10-22T11:13:13;9.55;;;3.75;;
24102;SDS011;12278;53.058;9.028;2022-10-22T11:17:21;3.63;;;3.25;;
24102;SDS011;12278;53.058;9.028;2022-10-22T11:26:05;5.88;;;3.00;;
24102;SDS011;12278;53.058;9.028;2022-10-22T11:30:12;5.75;;;3.70;;
24102;SDS011;12278;53.058;9.028;2022-10-22T11:34:19;6.50;;;3.75;;
24102;SDS011;12278;53.058;9.028;2022-10-22T11:38:24;5.55;;;4.03;;
24102;SDS011;12278;53.058;9.028;2022-10-22T11:42:39;8.00;;;3.85;;
24102;SDS011;12278;53.058;9.028;2022-10-22T11:55:00;6.20;;;3.67;;
24102;SDS011;12278;53.058;9.028;2022-10-22T11:59:01;7.90;;;3.45;;
24102;SDS011;12278;53.058;9.028;2022-10-22T12:03:14;11.43;;;3.95;;
24102;SDS011;12278;53.058;9.028;2022-10-22T12:11:51;7.95;;;4.10;;
24102;SDS011;12278;53.058;9.028;2022-10-22T12:15:53;7.63;;;4.07;;
24102;SDS011;12278;53.058;9.028;2022-10-22T12:20:03;5.55;;;2.58;;
24102;SDS011;12278;53.058;9.028;2022-10-22T12:24:14;5.93;;;2.88;;
24102;SDS011;12278;53.058;9.028;2022-10-22T12:28:18;5.20;;;2.83;;
24102;SDS011;12278;53.058;9.028;2022-10-22T12:32:19;8.43;;;2.58;;
24102;SDS011;12278;53.058;9.028;2022-10-22T12:36:22;4.97;;;2.40;;
24102;SDS011;12278;53.058;9.028;2022-10-22T12:40:29;5.85;;;3.35;;
24102;SDS011;12278;53.058;9.028;2022-10-22T12:44:36;4.13;;;2.55;;
24102;SDS011;12278;53.058;9.028;2022-10-22T12:48:37;4.97;;;2.30;;
24102;SDS011;12278;53.058;9.028;2022-10-22T12:52:43;5.93;;;2.58;;
24102;SDS011;12278;53.058;9.028;2022-10-22T12:56:43;6.00;;;2.58;;
24102;SDS011;12278;53.058;9.028;2022-10-22T13:00:47;5.18;;;3.15;;
24102;SDS011;12278;53.058;9.028;2022-10-22T13:05:06;14.52;;;3.05;;
24102;SDS011;12278;53.058;9.028;2022-10-22T13:09:13;4.18;;;2.45;;
24102;SDS011;12278;53.058;9.028;2022-10-22T13:13:28;5.75;;;2.75;;
24102;SDS011;12278;53.058;9.028;2022-10-22T13:17:43;3.35;;;2.40;;
24102;SDS011;12278;53.058;9.028;2022-10-22T13:21:47;4.75;;;3.00;;
24102;SDS011;12278;53.058;9.028;2022-10-22T13:26:02;6.60;;;2.80;;
24102;SDS011;12278;53.058;9.028;2022-10-22T13:30:54;5.47;;;2.92;;
24102;SDS011;12278;53.058;9.028;2022-10-22T13:34:36;10.48;;;3.40;;
24102;SDS011;12278;53.058;9.028;2022-10-22T13:38:39;8.05;;;3.33;;
24102;SDS011;12278;53.058;9.028;2022-10-22T13:46:41;9.00;;;3.92;;
24102;SDS011;12278;53.058;9.028;2022-10-22T13:50:42;5.95;;;4.10;;
24102;SDS011;12278;53.058;9.028;2022-10-22T13:54:43;4.10;;;3.63;;
24102;SDS011;12278;53.058;9.028;2022-10-22T13:58:44;4.45;;;3.00;;
24102;SDS011;12278;53.058;9.028;2022-10-22T14:02:46;4.25;;;2.92;;
24102;SDS011;12278;53.058;9.028;2022-10-22T14:06:49;6.65;;;2.80;;
24102;SDS011;12278;53.058;9.028;2022-10-22T14:10:50;5.15;;;2.88;;
24102;SDS011;12278;53.058;9.028;2022-10-22T14:14:51;5.05;;;3.17;;
24102;SDS011;12278;53.058;9.028;2022-10-22T14:18:51;5.55;;;2.55;;
24102;SDS011;12278;53.058;9.028;2022-10-22T14:22:55;5.05;;;2.50;;
24102;SDS011;12278;53.058;9.028;2022-10-22T14:27:02;5.25;;;2.20;;
24102;SDS011;12278;53.058;9.028;2022-10-22T14:31:03;5.63;;;2.65;;
24102;SDS011;12278;53.058;9.028;2022-10-22T14:35:03;7.67;;;2.60;;
24102;SDS011;12278;53.058;9.028;2022-10-22T14:39:04;5.60;;;2.10;;
24102;SDS011;12278;53.058;9.028;2022-10-22T14:43:05;5.97;;;2.63;;
24102;SDS011;12278;53.058;9.028;2022-10-22T14:47:10;4.82;;;2.90;;
24102;SDS011;12278;53.058;9.028;2022-10-22T14:51:14;17.80;;;2.88;;
24102;SDS011;12278;53.058;9.028;2022-10-22T14:55:19;5.70;;;2.35;;
24102;SDS011;12278;53.058;9.028;2022-10-22T14:59:20;4.88;;;2.60;;
24102;SDS011;12278;53.058;9.028;2022-10-22T15:03:21;3.90;;;2.50;;
24102;SDS011;12278;53.058;9.028;2022-10-22T15:07:24;6.68;;;2.67;;
24102;SDS011;12278;53.058;9.028;2022-10-22T15:11:27;6.65;;;2.53;;
24102;SDS011;12278;53.058;9.028;2022-10-22T15:15:28;2.53;;;2.15;;
24102;SDS011;12278;53.058;9.028;2022-10-22T15:19:28;5.72;;;2.50;;
24102;SDS011;12278;53.058;9.028;2022-10-22T15:23:29;6.20;;;2.60;;
24102;SDS011;12278;53.058;9.028;2022-10-22T15:27:30;8.23;;;2.63;;
24102;SDS011;12278;53.058;9.028;2022-10-22T15:47:44;5.55;;;2.90;;
24102;SDS011;12278;53.058;9.028;2022-10-22T15:59:49;10.35;;;3.53;;
24102;SDS011;12278;53.058;9.028;2022-10-22T16:03:51;11.55;;;3.58;;
24102;SDS011;12278;53.058;9.028;2022-10-22T16:07:58;4.40;;;3.00;;
24102;SDS011;12278;53.058;9.028;2022-10-22T16:11:59;4.53;;;2.80;;
24102;SDS011;12278;53.058;9.028;2022-10-22T16:16:02;6.15;;;3.33;;
24102;SDS011;12278;53.058;9.028;2022-10-22T16:20:04;7.68;;;3.67;;
24102;SDS011;12278;53.058;9.028;2022-10-22T16:24:05;5.00;;;3.90;;
24102;SDS011;12278;53.058;9.028;2022-10-22T16:28:08;8.23;;;3.90;;
24102;SDS011;12278;53.058;9.028;2022-10-22T16:32:11;5.72;;;3.22;;
24102;SDS011;12278;53.058;9.028;2022-10-22T16:36:12;7.13;;;3.50;;
24102;SDS011;12278;53.058;9.028;2022-10-22T16:40:17;8.20;;;3.42;;
24102;SDS011;12278;53.058;9.028;2022-10-22T16:44:17;10.45;;;3.70;;
24102;SDS011;12278;53.058;9.028;2022-10-22T16:48:18;4.90;;;3.42;;
24102;SDS011;12278;53.058;9.028;2022-10-22T16:52:18;6.10;;;3.63;;
24102;SDS011;12278;53.058;9.028;2022-10-22T16:56:19;4.72;;;3.42;;
24102;SDS011;12278;53.058;9.028;2022-10-22T17:00:20;8.07;;;3.90;;
24102;SDS011;12278;53.058;9.028;2022-10-22T17:04:21;6.18;;;3.55;;
24102;SDS011;12278;53.058;9.028;2022-10-22T17:12:23;10.50;;;3.97;;
24102;SDS011;12278;53.058;9.028;2022-10-22T17:16:23;7.80;;;4.30;;
24102;SDS011;12278;53.058;9.028;2022-10-22T17:20:24;10.38;;;4.60;;
24102;SDS011;12278;53.058;9.028;2022-10-22T17:24:25;5.45;;;4.00;;
24102;SDS011;12278;53.058;9.028;2022-10-22T17:28:26;4.65;;;3.80;;
24102;SDS011;12278;53.058;9.028;2022-10-22T17:32:28;5.65;;;4.10;;
24102;SDS011;12278;53.058;9.028;2022-10-22T17:36:29;10.77;;;4.63;;
24102;SDS011;12278;53.058;9.028;2022-10-22T17:40:30;7.32;;;4.70;;
24102;SDS011;12278;53.058;9.028;2022-10-22T17:44:31;5.45;;;4.03;;
24102;SDS011;12278;53.058;9.028;2022-10-22T17:48:31;7.60;;;3.85;;
24102;SDS011;12278;53.058;9.028;2022-10-22T17:52:33;8.27;;;4.90;;
24102;SDS011;12278;53.058;9.028;2022-10-22T17:56:34;4.60;;;4.05;;
24102;SDS011;12278;53.058;9.028;2022-10-22T18:00:36;7.68;;;4.25;;
24102;SDS011;12278;53.058;9.028;2022-10-22T18:04:36;6.65;;;4.85;;
24102;SDS011;12278;53.058;9.028;2022-10-22T18:08:37;5.10;;;4.00;;
24102;SDS011;12278;53.058;9.028;2022-10-22T18:12:38;7.53;;;4.22;;
24102;SDS011;12278;53.058;9.028;2022-10-22T18:16:38;7.57;;;5.43;;
24102;SDS011;12278;53.058;9.028;2022-10-22T18:20:39;7.38;;;5.00;;
24102;SDS011;12278;53.058;9.028;2022-10-22T18:24:40;8.20;;;5.22;;
24102;SDS011;12278;53.058;9.028;2022-10-22T18:28:40;6.03;;;5.43;;
24102;SDS011;12278;53.058;9.028;2022-10-22T18:32:41;6.70;;;5.63;;
24102;SDS011;12278;53.058;9.028;2022-10-22T18:36:42;6.07;;;5.35;;
24102;SDS011;12278;53.058;9.028;2022-10-22T18:40:43;7.43;;;5.70;;
24102;SDS011;12278;53.058;9.028;2022-10-22T18:44:50;9.70;;;6.57;;
24102;SDS011;12278;53.058;9.028;2022-10-22T18:48:51;6.93;;;5.35;;
24102;SDS011;12278;53.058;9.028;2022-10-22T18:52:53;7.78;;;5.15;;
24102;SDS011;12278;53.058;9.028;2022-10-22T18:56:54;8.68;;;5.90;;
24102;SDS011;12278;53.058;9.028;2022-10-22T19:00:57;8.18;;;5.95;;
24102;SDS011;12278;53.058;9.028;2022-10-22T19:05:05;9.10;;;5.72;;
24102;SDS011;12278;53.058;9.028;2022-10-22T19:09:06;10.07;;;6.15;;
24102;SDS011;12278;53.058;9.028;2022-10-22T19:13:08;8.07;;;7.28;;
24102;SDS011;12278;53.058;9.028;2022-10-22T19:17:08;11.25;;;7.55;;
24102;SDS011;12278;53.058;9.028;2022-10-22T19:21:09;14.48;;;6.65;;
24102;SDS011;12278;53.058;9.028;2022-10-22T19:25:10;8.15;;;6.43;;
24102;SDS011;12278;53.058;9.028;2022-10-22T19:29:11;11.23;;;7.07;;
24102;SDS011;12278;53.058;9.028;2022-10-22T19:33:18;9.85;;;6.22;;
24102;SDS011;12278;53.058;9.028;2022-10-22T19:37:19;9.57;;;5.95;;
24102;SDS011;12278;53.058;9.028;2022-10-22T19:41:20;9.40;;;7.00;;
24102;SDS011;12278;53.058;9.028;2022-10-22T19:45:21;9.77;;;6.88;;
24102;SDS011;12278;53.058;9.028;2022-10-22T19:49:22;10.75;;;6.85;;
24102;SDS011;12278;53.058;9.028;2022-10-22T19:53:23;11.18;;;7.15;;
24102;SDS011;12278;53.058;9.028;2022-10-22T19:57:23;9.63;;;6.63;;
24102;SDS011;12278;53.058;9.028;2022-10-22T20:01:25;10.27;;;6.13;;
24102;SDS011;12278;53.058;9.028;2022-10-22T20:05:25;10.27;;;6.78;;
24102;SDS011;12278;53.058;9.028;2022-10-22T20:09:26;10.63;;;6.95;;
24102;SDS011;12278;53.058;9.028;2022-10-22T20:13:27;7.10;;;6.25;;
24102;SDS011;12278;53.058;9.028;2022-10-22T20:17:28;10.43;;;6.40;;
24102;SDS011;12278;53.058;9.028;2022-10-22T20:21:29;9.38;;;6.43;;
24102;SDS011;12278;53.058;9.028;2022-10-22T20:25:29;13.77;;;7.25;;
24102;SDS011;12278;53.058;9.028;2022-10-22T20:29:30;9.82;;;6.28;;
24102;SDS011;12278;53.058;9.028;2022-10-22T20:33:31;11.70;;;7.00;;
24102;SDS011;12278;53.058;9.028;2022-10-22T20:37:32;7.88;;;5.55;;
24102;SDS011;12278;53.058;9.028;2022-10-22T20:41:34;7.50;;;5.78;;
24102;SDS011;12278;53.058;9.028;2022-10-22T20:45:39;12.32;;;6.05;;
24102;SDS011;12278;53.058;9.028;2022-10-22T20:49:40;8.15;;;5.97;;
24102;SDS011;12278;53.058;9.028;2022-10-22T20:53:40;9.95;;;6.40;;
24102;SDS011;12278;53.058;9.028;2022-10-22T20:57:42;8.13;;;6.88;;
24102;SDS011;12278;53.058;9.028;2022-10-22T21:01:47;10.75;;;6.57;;
24102;SDS011;12278;53.058;9.028;2022-10-22T21:05:49;8.95;;;6.70;;
24102;SDS011;12278;53.058;9.028;2022-10-22T21:09:49;8.48;;;7.03;;
24102;SDS011;12278;53.058;9.028;2022-10-22T21:13:50;10.10;;;6.60;;
24102;SDS011;12278;53.058;9.028;2022-10-22T21:17:51;13.68;;;7.90;;
24102;SDS011;12278;53.058;9.028;2022-10-22T21:21:52;12.10;;;7.75;;
24102;SDS011;12278;53.058;9.028;2022-10-22T21:25:56;9.38;;;7.18;;
24102;SDS011;12278;53.058;9.028;2022-10-22T21:29:57;9.40;;;6.50;;
24102;SDS011;12278;53.058;9.028;2022-10-22T21:33:58;8.98;;;7.20;;
24102;SDS011;12278;53.058;9.028;2022-10-22T21:37:58;11.35;;;7.43;;
24102;SDS011;12278;53.058;9.028;2022-10-22T21:41:59;13.27;;;7.88;;
24102;SDS011;12278;53.058;9.028;2022-10-22T21:46:20;11.13;;;8.15;;
24102;SDS011;12278;53.058;9.028;2022-10-22T21:50:22;9.30;;;7.43;;
24102;SDS011;12278;53.058;9.028;2022-10-22T21:54:22;10.70;;;7.15;;
24102;SDS011;12278;53.058;9.028;2022-10-22T21:58:23;11.45;;;7.93;;
24102;SDS011;12278;53.058;9.028;2022-10-22T22:02:24;12.90;;;7.18;;
24102;SDS011;12278;53.058;9.028;2022-10-22T22:06:28;8.13;;;7.15;;
24102;SDS011;12278;53.058;9.028;2022-10-22T22:10:36;9.23;;;7.22;;
24102;SDS011;12278;53.058;9.028;2022-10-22T22:14:37;13.63;;;9.38;;
24102;SDS011;12278;53.058;9.028;2022-10-22T22:18:38;9.55;;;7.90;;
24102;SDS011;12278;53.058;9.028;2022-10-22T22:22:40;13.18;;;8.27;;
24102;SDS011;12278;53.058;9.028;2022-10-22T22:26:40;9.20;;;7.40;;
24102;SDS011;12278;53.058;9.028;2022-10-22T22:30:41;8.73;;;7.25;;
24102;SDS011;12278;53.058;9.028;2022-10-22T22:34:42;8.80;;;7.95;;
24102;SDS011;12278;53.058;9.028;2022-10-22T22:38:42;13.23;;;8.57;;
24102;SDS011;12278;53.058;9.028;2022-10-22T22:42:43;13.45;;;8.68;;
24102;SDS011;12278;53.058;9.028;2022-10-22T22:46:44;9.88;;;8.05;;
24102;SDS011;12278;53.058;9.028;2022-10-22T22:50:44;11.65;;;8.18;;
24102;SDS011;12278;53.058;9.028;2022-10-22T22:54:45;10.45;;;8.20;;
24102;SDS011;12278;53.058;9.028;2022-10-22T22:58:47;13.52;;;8.90;;
24102;SDS011;12278;53.058;9.028;2022-10-22T23:02:52;11.23;;;7.82;;
24102;SDS011;12278;53.058;9.028;2022-10-22T23:06:54;10.45;;;8.00;;
24102;SDS011;12278;53.058;9.028;2022-10-22T23:10:59;11.13;;;8.70;;
24102;SDS011;12278;53.058;9.028;2022-10-22T23:15:05;14.35;;;9.32;;
24102;SDS011;12278;53.058;9.028;2022-10-22T23:19:06;14.15;;;8.43;;
24102;SDS011;12278;53.058;9.028;2022-10-22T23:23:07;13.38;;;8.68;;
24102;SDS011;12278;53.058;9.028;2022-10-22T23:27:08;10.40;;;8.55;;
24102;SDS011;12278;53.058;9.028;2022-10-22T23:31:11;12.23;;;9.63;;
24102;SDS011;12278;53.058;9.028;2022-10-22T23:35:13;10.27;;;9.00;;
24102;SDS011;12278;53.058;9.028;2022-10-22T23:39:15;10.80;;;8.05;;
24102;SDS011;12278;53.058;9.028;2022-10-22T23:43:18;14.75;;;9.30;;
24102;SDS011;12278;53.058;9.028;2022-10-22T23:47:19;11.57;;;8.60;;
24102;SDS011;12278;53.058;9.028;2022-10-22T23:51:19;12.73;;;9.30;;
24102;SDS011;12278;53.058;9.028;2022-10-22T23:55:21;12.32;;;10.25;;
24102;SDS011;12278;53.058;9.028;2022-10-22T23:59:21;15.95;;;9.52;;
